Time;durP1;ratioP1;P1;durP2;ratioP2;P2;SDS_P1;SDS_P2;PMS_P1;PMS_P2;Temp;Humidity;BMP_temperature;BMP_pressure;BME280_temperature;BME280_humidity;BME280_pressure;Samples;Min_cycle;Max_cycle;Signal;HPM_P1;HPM_P2
2023/05/06 00:02:19;;;;;;;16.93;14.60;;;13.00;99.90;;;;;;5073419;28;20463;-62
2023/05/06 00:04:46;;;;;;;20.00;15.93;;;13.00;99.90;;;;;;5073056;28;20455;-60
2023/05/06 00:07:13;;;;;;;17.63;14.20;;;13.00;99.90;;;;;;5073482;28;20446;-62
2023/05/06 00:09:39;;;;;;;20.20;16.50;;;13.00;99.90;;;;;;5074252;28;20450;-62
2023/05/06 00:12:07;;;;;;;21.30;16.23;;;13.00;99.90;;;;;;5074297;28;20454;-62
2023/05/06 00:14:34;;;;;;;19.03;16.17;;;13.00;99.90;;;;;;5074100;28;20443;-61
2023/05/06 00:17:01;;;;;;;22.90;17.30;;;12.90;99.90;;;;;;5073571;28;20471;-62
2023/05/06 00:19:28;;;;;;;21.70;17.03;;;12.90;99.90;;;;;;5073728;28;20462;-61
2023/05/06 00:21:55;;;;;;;19.20;17.13;;;12.90;99.90;;;;;;5073639;28;20447;-62
2023/05/06 00:24:21;;;;;;;21.53;17.20;;;12.80;99.90;;;;;;5072897;28;20894;-62
2023/05/06 00:26:48;;;;;;;22.10;17.77;;;12.80;99.90;;;;;;5073938;28;20439;-62
2023/05/06 00:29:16;;;;;;;21.43;17.00;;;12.80;99.90;;;;;;5077046;28;20458;-62
2023/05/06 00:31:44;;;;;;;20.63;17.47;;;12.80;99.90;;;;;;5077118;28;20446;-62
2023/05/06 00:34:10;;;;;;;24.57;17.17;;;12.70;99.90;;;;;;5076832;28;20549;-62
2023/05/06 00:36:37;;;;;;;21.13;17.57;;;12.70;99.90;;;;;;5076949;28;20483;-61
2023/05/06 00:39:04;;;;;;;23.23;18.43;;;12.70;99.90;;;;;;5076964;28;20443;-61
2023/05/06 00:41:32;;;;;;;25.93;17.53;;;12.70;99.90;;;;;;5077002;28;20447;-61
2023/05/06 00:43:59;;;;;;;24.17;18.23;;;12.70;99.90;;;;;;5077208;28;20467;-61
2023/05/06 00:46:27;;;;;;;21.10;16.03;;;12.70;99.90;;;;;;5077208;28;20442;-61
2023/05/06 00:48:55;;;;;;;19.30;16.77;;;12.70;99.90;;;;;;5076674;28;20443;-61
2023/05/06 00:51:22;;;;;;;18.20;15.10;;;12.60;99.90;;;;;;5077034;28;20451;-61
2023/05/06 00:53:48;;;;;;;19.00;15.97;;;12.70;99.90;;;;;;5076671;28;20492;-60
2023/05/06 00:56:16;;;;;;;20.60;16.40;;;12.70;99.90;;;;;;5076702;28;20474;-61
2023/05/06 00:58:43;;;;;;;21.77;16.70;;;12.70;99.90;;;;;;5076528;28;20447;-60
2023/05/06 01:01:11;;;;;;;20.03;17.20;;;12.70;99.90;;;;;;5077085;28;20450;-62
2023/05/06 01:03:39;;;;;;;22.17;17.77;;;12.70;99.90;;;;;;5077015;28;20505;-61
2023/05/06 01:06:12;;;;;;;19.67;16.00;;;12.70;99.90;;;;;;5077503;28;20435;-61
2023/05/06 01:08:45;;;;;;;18.63;15.57;;;12.70;99.90;;;;;;5077074;28;20467;-59
2023/05/06 01:11:15;;;;;;;23.60;17.80;;;12.70;99.90;;;;;;5077253;28;20837;-60
2023/05/06 01:13:48;;;;;;;23.50;16.40;;;12.60;99.90;;;;;;5077121;28;20474;-60
2023/05/06 01:16:17;;;;;;;20.33;16.57;;;12.60;99.90;;;;;;5076883;28;20467;-61
2023/05/06 01:18:48;;;;;;;18.47;14.80;;;12.60;99.90;;;;;;5076939;28;20443;-60
2023/05/06 01:21:16;;;;;;;19.87;15.70;;;12.60;99.90;;;;;;5076240;28;20435;-61
2023/05/06 01:23:56;;;;;;;20.37;15.20;;;12.60;99.90;;;;;;5075957;28;20470;-61
2023/05/06 01:26:23;;;;;;;16.73;13.40;;;12.60;99.90;;;;;;5076351;28;20451;-61
2023/05/06 01:28:50;;;;;;;16.30;14.00;;;12.50;99.90;;;;;;5076166;28;20461;-61
2023/05/06 01:31:23;;;;;;;21.70;17.50;;;12.50;99.90;;;;;;5076998;28;20453;-61
2023/05/06 01:34:02;;;;;;;17.73;14.93;;;12.50;99.90;;;;;;5075712;28;20820;-61
2023/05/06 01:36:34;;;;;;;19.00;16.77;;;12.50;99.90;;;;;;5075893;28;20467;-61
2023/05/06 01:39:12;;;;;;;17.40;13.47;;;12.50;99.90;;;;;;5075187;28;20427;-61
2023/05/06 01:41:41;;;;;;;17.00;14.23;;;12.50;99.90;;;;;;5076023;28;20442;-62
2023/05/06 01:44:08;;;;;;;17.50;14.17;;;12.40;99.90;;;;;;5075704;28;20484;-61
2023/05/06 01:46:35;;;;;;;18.17;15.37;;;12.40;99.90;;;;;;5075713;28;20436;-61
2023/05/06 01:49:05;;;;;;;16.43;12.97;;;12.30;99.90;;;;;;5075711;28;20445;-61
2023/05/06 01:51:33;;;;;;;16.60;13.77;;;12.20;99.90;;;;;;5077482;28;20501;-61
2023/05/06 01:54:01;;;;;;;17.50;13.43;;;12.10;99.90;;;;;;5076125;28;20471;-61
2023/05/06 01:56:29;;;;;;;17.70;14.13;;;12.10;99.90;;;;;;5075740;28;20479;-62
2023/05/06 01:58:57;;;;;;;15.87;12.43;;;12.00;99.90;;;;;;5075553;28;20443;-60
2023/05/06 02:01:23;;;;;;;19.70;13.80;;;11.90;99.90;;;;;;5075724;28;20448;-60
2023/05/06 02:03:50;;;;;;;19.20;12.80;;;11.90;99.90;;;;;;5076055;28;20470;-61
2023/05/06 02:06:17;;;;;;;19.03;13.30;;;11.80;99.90;;;;;;5076299;28;20831;-61
2023/05/06 02:08:44;;;;;;;17.60;12.87;;;11.70;99.90;;;;;;5076504;28;20469;-60
2023/05/06 02:11:12;;;;;;;15.80;12.20;;;11.70;99.90;;;;;;5076264;28;20447;-61
2023/05/06 02:13:39;;;;;;;15.27;12.63;;;11.60;99.90;;;;;;5076210;28;20471;-61
2023/05/06 02:16:07;;;;;;;14.43;11.90;;;11.60;99.90;;;;;;5075752;28;20447;-60
2023/05/06 02:18:34;;;;;;;15.00;11.40;;;11.50;99.90;;;;;;5075642;28;20540;-60
2023/05/06 02:21:02;;;;;;;15.50;11.33;;;11.50;99.90;;;;;;5075558;28;20465;-62
2023/05/06 02:23:28;;;;;;;12.63;10.57;;;11.50;99.90;;;;;;5075670;28;20467;-61
2023/05/06 02:25:56;;;;;;;12.63;11.20;;;11.40;99.90;;;;;;5075698;28;20447;-62
2023/05/06 02:28:25;;;;;;;13.60;9.23;;;11.40;99.90;;;;;;5075917;28;20443;-61
2023/05/06 02:30:55;;;;;;;10.53;9.20;;;11.40;99.90;;;;;;5076152;28;20451;-61
2023/05/06 02:33:22;;;;;;;10.60;9.30;;;11.30;99.90;;;;;;5075595;28;20471;-61
2023/05/06 02:35:49;;;;;;;10.07;8.90;;;11.20;99.90;;;;;;5075528;28;20439;-61
2023/05/06 02:38:16;;;;;;;10.10;9.00;;;11.20;99.90;;;;;;5075602;28;20479;-60
2023/05/06 02:40:42;;;;;;;10.30;9.30;;;11.20;99.90;;;;;;5076311;28;20443;-61
2023/05/06 02:43:09;;;;;;;12.00;9.30;;;11.20;99.90;;;;;;5075177;28;20821;-62
2023/05/06 02:45:37;;;;;;;9.63;8.63;;;11.20;99.90;;;;;;5074464;28;20446;-61
2023/05/06 02:48:04;;;;;;;10.60;8.40;;;11.10;99.90;;;;;;5074616;28;20443;-60
2023/05/06 02:50:31;;;;;;;12.43;8.97;;;11.10;99.90;;;;;;5073702;28;20439;-61
2023/05/06 02:52:58;;;;;;;11.20;8.40;;;11.20;99.90;;;;;;5074509;28;20467;-61
2023/05/06 02:55:24;;;;;;;10.00;8.50;;;11.20;99.90;;;;;;5074463;28;20454;-61
2023/05/06 02:57:51;;;;;;;12.03;9.47;;;11.30;99.90;;;;;;5073786;28;20482;-61
2023/05/06 03:00:18;;;;;;;10.67;9.07;;;11.30;99.90;;;;;;5074238;28;20443;-61
2023/05/06 03:02:46;;;;;;;11.03;9.80;;;11.40;99.90;;;;;;5073837;28;20533;-61
2023/05/06 03:05:13;;;;;;;11.43;9.17;;;11.40;99.90;;;;;;5074173;28;20448;-61
2023/05/06 03:07:41;;;;;;;10.93;9.33;;;11.40;99.90;;;;;;5074364;28;20436;-61
2023/05/06 03:10:08;;;;;;;12.60;9.80;;;11.40;99.90;;;;;;5074033;28;20451;-60
2023/05/06 03:12:35;;;;;;;11.47;10.20;;;11.30;99.90;;;;;;5073894;28;20467;-62
2023/05/06 03:15:02;;;;;;;10.50;8.40;;;11.30;99.90;;;;;;5074073;28;20458;-61
2023/05/06 03:17:28;;;;;;;12.27;10.17;;;11.20;99.90;;;;;;5073962;28;20572;-61
2023/05/06 03:19:56;;;;;;;11.87;10.00;;;11.20;99.90;;;;;;5073531;28;20450;-61
2023/05/06 03:22:23;;;;;;;13.20;10.40;;;11.20;99.90;;;;;;5073796;28;20467;-61
2023/05/06 03:24:50;;;;;;;14.77;10.93;;;11.20;99.90;;;;;;5073752;28;20450;-61
2023/05/06 03:27:17;;;;;;;12.73;10.60;;;11.20;99.90;;;;;;5073689;28;20802;-61
2023/05/06 03:29:43;;;;;;;14.83;11.60;;;11.10;99.90;;;;;;5073846;28;20444;-61
2023/05/06 03:32:10;;;;;;;14.37;11.00;;;11.10;99.90;;;;;;5073640;28;20833;-62
2023/05/06 03:34:37;;;;;;;14.00;12.13;;;11.10;99.90;;;;;;5073641;28;20423;-62
2023/05/06 03:37:05;;;;;;;14.77;12.63;;;11.10;99.90;;;;;;5073423;28;20918;-62
2023/05/06 03:39:32;;;;;;;14.30;10.70;;;11.10;99.90;;;;;;5073584;28;20443;-62
2023/05/06 03:41:59;;;;;;;13.20;11.80;;;11.10;99.90;;;;;;5073538;28;20443;-62
2023/05/06 03:44:26;;;;;;;15.90;11.57;;;11.10;99.90;;;;;;5073041;28;20936;-60
2023/05/06 03:46:52;;;;;;;15.20;11.80;;;11.20;99.90;;;;;;5073346;28;20447;-60
2023/05/06 03:49:20;;;;;;;15.33;12.50;;;11.20;99.90;;;;;;5073378;28;20460;-62
2023/05/06 03:51:47;;;;;;;21.37;14.00;;;11.30;99.90;;;;;;5073461;28;20448;-61
2023/05/06 03:54:15;;;;;;;16.73;12.07;;;11.30;99.90;;;;;;5073496;28;20538;-60
2023/05/06 03:56:41;;;;;;;14.53;11.10;;;11.30;99.90;;;;;;5073211;28;20454;-62
2023/05/06 03:59:08;;;;;;;16.17;11.57;;;11.40;99.90;;;;;;5072972;28;20447;-60
2023/05/06 04:01:35;;;;;;;13.83;10.80;;;11.50;99.90;;;;;;5072457;28;21010;-61
2023/05/06 04:04:02;;;;;;;13.93;11.80;;;11.50;99.90;;;;;;5072787;28;20474;-61
2023/05/06 04:06:29;;;;;;;16.47;12.60;;;11.50;99.90;;;;;;5072755;28;20825;-61
2023/05/06 04:11:39;;;;;;;17.10;12.00;;;11.60;99.90;;;;;;5091330;27;20545;-62
2023/05/06 04:14:06;;;;;;;15.20;11.73;;;11.60;99.90;;;;;;5090232;28;20474;-62
2023/05/06 04:16:33;;;;;;;14.40;12.10;;;11.60;99.90;;;;;;5090408;28;20486;-61
2023/05/06 04:19:00;;;;;;;14.13;11.90;;;11.60;99.90;;;;;;5090158;28;20447;-62
2023/05/06 04:21:28;;;;;;;13.90;11.40;;;11.70;99.90;;;;;;5090377;28;20549;-62
2023/05/06 04:23:55;;;;;;;14.37;11.50;;;11.70;99.90;;;;;;5090478;28;20557;-62
2023/05/06 04:26:22;;;;;;;14.67;11.47;;;11.70;99.90;;;;;;5090020;28;20887;-61
2023/05/06 04:28:50;;;;;;;13.20;10.63;;;11.70;99.90;;;;;;5090174;28;20955;-61
2023/05/06 04:31:17;;;;;;;13.90;11.10;;;11.70;99.90;;;;;;5090112;28;20482;-62
2023/05/06 04:33:44;;;;;;;12.73;11.23;;;11.70;99.90;;;;;;5095291;22;20495;-60
2023/05/06 04:36:11;;;;;;;14.10;10.80;;;11.70;99.90;;;;;;5071118;28;20442;-61
2023/05/06 04:38:38;;;;;;;13.10;11.40;;;11.70;99.90;;;;;;5070210;28;20447;-60
2023/05/06 04:41:05;;;;;;;14.20;12.10;;;11.70;99.90;;;;;;5069817;28;20471;-61
2023/05/06 04:43:32;;;;;;;13.53;11.50;;;11.60;99.90;;;;;;5069677;28;20466;-60
2023/05/06 04:46:00;;;;;;;13.57;12.07;;;11.70;99.90;;;;;;5069547;28;20442;-60
2023/05/06 04:48:27;;;;;;;14.07;11.47;;;11.70;99.90;;;;;;5069744;28;20898;-60
2023/05/06 04:50:53;;;;;;;13.63;11.20;;;11.60;99.90;;;;;;5069680;28;20482;-61
2023/05/06 04:53:20;;;;;;;12.90;10.53;;;11.70;99.90;;;;;;5069577;28;20468;-61
2023/05/06 04:55:47;;;;;;;13.30;10.67;;;11.70;99.90;;;;;;5069655;28;20443;-61
2023/05/06 04:58:14;;;;;;;13.70;10.87;;;11.70;99.90;;;;;;5069311;28;20443;-61
2023/05/06 05:00:41;;;;;;;16.20;12.07;;;11.70;99.90;;;;;;5069181;28;20448;-62
2023/05/06 05:03:09;;;;;;;13.30;11.33;;;11.70;99.90;;;;;;5069597;28;20466;-60
2023/05/06 05:05:35;;;;;;;12.50;11.10;;;11.90;99.90;;;;;;5069328;28;20455;-60
2023/05/06 05:08:02;;;;;;;13.47;11.47;;;11.90;99.90;;;;;;5069635;28;20795;-59
2023/05/06 05:10:29;;;;;;;12.03;10.83;;;12.10;99.90;;;;;;5069385;28;20471;-60
2023/05/06 05:12:56;;;;;;;11.33;10.13;;;12.40;99.90;;;;;;5069561;28;20471;-60
2023/05/06 05:15:23;;;;;;;11.20;9.93;;;12.70;99.90;;;;;;5069500;28;20571;-59
2023/05/06 05:17:50;;;;;;;12.30;10.60;;;12.80;99.90;;;;;;5069529;28;20450;-61
2023/05/06 05:20:18;;;;;;;13.00;11.13;;;12.90;99.90;;;;;;5069017;28;20964;-58
2023/05/06 05:22:45;;;;;;;10.30;9.30;;;13.10;99.90;;;;;;5057451;28;20462;-60
2023/05/06 05:25:12;;;;;;;10.17;9.13;;;13.30;99.90;;;;;;5056067;28;20443;-60
2023/05/06 05:27:38;;;;;;;10.33;8.63;;;13.50;99.90;;;;;;5055824;28;20810;-60
2023/05/06 05:30:06;;;;;;;10.10;9.10;;;13.60;99.90;;;;;;5055741;28;20476;-61
2023/05/06 05:32:33;;;;;;;12.37;9.80;;;13.70;99.90;;;;;;5055767;28;20436;-59
2023/05/06 05:35:00;;;;;;;11.50;10.40;;;13.80;99.90;;;;;;5055374;28;20483;-58
2023/05/06 05:37:28;;;;;;;12.00;10.60;;;13.90;99.90;;;;;;5055998;28;20542;-60
2023/05/06 05:39:55;;;;;;;10.77;9.67;;;13.90;99.90;;;;;;5055761;28;20448;-60
2023/05/06 05:42:22;;;;;;;12.23;10.60;;;13.80;99.90;;;;;;5055602;28;20494;-60
2023/05/06 05:44:48;;;;;;;11.97;10.67;;;13.60;99.90;;;;;;5055456;28;20830;-60
2023/05/06 05:47:15;;;;;;;12.27;11.03;;;13.40;99.90;;;;;;5055235;28;20942;-60
2023/05/06 05:49:42;;;;;;;12.53;10.00;;;13.30;99.90;;;;;;5055513;28;20447;-60
2023/05/06 05:52:09;;;;;;;11.07;9.63;;;13.30;99.90;;;;;;5055054;28;20444;-60
2023/05/06 05:54:37;;;;;;;11.33;9.80;;;13.30;99.90;;;;;;5055454;28;21045;-60
2023/05/06 05:57:04;;;;;;;11.57;10.30;;;13.30;99.90;;;;;;5055457;28;20452;-61
2023/05/06 05:59:31;;;;;;;12.73;11.43;;;13.30;99.90;;;;;;5055726;28;20451;-64
2023/05/06 06:01:58;;;;;;;12.40;11.10;;;13.30;99.90;;;;;;5056044;28;20938;-61
2023/05/06 06:04:25;;;;;;;11.90;10.63;;;13.20;99.90;;;;;;5055622;28;20464;-61
2023/05/06 06:06:52;;;;;;;12.83;11.17;;;13.30;99.90;;;;;;5055720;28;20444;-61
2023/05/06 06:09:19;;;;;;;13.97;10.73;;;13.30;99.90;;;;;;5055711;28;20794;-61
2023/05/06 06:11:47;;;;;;;14.33;11.97;;;13.30;99.90;;;;;;5055827;28;20476;-60
2023/05/06 06:14:14;;;;;;;12.93;11.53;;;13.40;99.90;;;;;;5056075;28;20475;-60
2023/05/06 06:16:41;;;;;;;14.17;12.07;;;13.40;99.90;;;;;;5055406;28;20444;-61
2023/05/06 06:19:07;;;;;;;12.40;11.10;;;13.50;99.90;;;;;;5056850;28;20440;-60
2023/05/06 06:21:34;;;;;;;16.13;11.90;;;13.50;99.90;;;;;;5055648;28;20439;-59
2023/05/06 06:24:01;;;;;;;15.63;12.13;;;13.50;99.90;;;;;;5055661;28;20589;-61
2023/05/06 06:26:28;;;;;;;14.23;12.67;;;13.60;99.90;;;;;;5055618;28;20448;-62
2023/05/06 06:28:56;;;;;;;14.07;12.00;;;13.60;99.90;;;;;;5056184;28;20457;-63
2023/05/06 06:31:23;;;;;;;13.50;12.07;;;13.60;99.90;;;;;;5055462;28;20472;-61
2023/05/06 06:33:49;;;;;;;14.67;13.17;;;13.60;99.90;;;;;;5054254;28;20536;-61
2023/05/06 06:36:16;;;;;;;13.70;11.70;;;13.70;99.90;;;;;;5056277;28;20444;-59
2023/05/06 06:38:43;;;;;;;15.10;12.77;;;13.70;99.90;;;;;;5055816;28;20515;-60
2023/05/06 06:41:10;;;;;;;13.50;12.00;;;13.70;99.90;;;;;;5056001;28;20444;-60
2023/05/06 06:43:37;;;;;;;14.77;11.57;;;13.70;99.90;;;;;;5055648;28;20836;-60
2023/05/06 06:46:05;;;;;;;17.73;12.40;;;13.70;99.90;;;;;;5055770;28;20451;-59
2023/05/06 06:48:31;;;;;;;13.70;12.30;;;13.80;99.90;;;;;;5055739;28;20444;-61
2023/05/06 06:50:58;;;;;;;15.33;12.10;;;13.80;99.90;;;;;;5055484;28;20487;-60
2023/05/06 06:53:25;;;;;;;14.03;11.70;;;13.90;99.90;;;;;;5055598;28;20464;-61
2023/05/06 06:55:52;;;;;;;14.17;11.77;;;14.00;99.90;;;;;;5055790;28;20456;-62
2023/05/06 06:58:18;;;;;;;13.10;11.70;;;14.00;99.90;;;;;;5055421;28;20448;-61
2023/05/06 07:00:45;;;;;;;12.20;10.90;;;14.20;99.90;;;;;;5055579;28;20507;-60
2023/05/06 07:03:14;;;;;;;12.20;10.87;;;14.30;99.90;;;;;;5055424;28;20468;-61
2023/05/06 07:05:41;;;;;;;13.63;11.70;;;14.40;99.90;;;;;;5054622;28;20455;-61
2023/05/06 07:08:08;;;;;;;14.43;12.27;;;14.50;99.90;;;;;;5054780;28;20444;-61
2023/05/06 07:10:35;;;;;;;12.80;10.67;;;14.60;99.90;;;;;;5054145;28;20476;-61
2023/05/06 07:13:02;;;;;;;13.70;12.17;;;14.60;99.90;;;;;;5055585;28;20500;-62
2023/05/06 07:15:28;;;;;;;14.50;11.30;;;14.70;99.90;;;;;;5054531;28;20444;-61
2023/05/06 07:17:55;;;;;;;15.60;12.23;;;14.80;99.90;;;;;;5054861;28;20444;-62
2023/05/06 07:20:23;;;;;;;12.77;11.47;;;14.90;99.90;;;;;;5055924;28;20479;-62
2023/05/06 07:22:50;;;;;;;13.37;11.93;;;14.80;99.90;;;;;;5055460;28;20460;-61
2023/05/06 07:25:17;;;;;;;14.07;12.60;;;14.70;99.90;;;;;;5056326;28;20440;-61
2023/05/06 07:27:44;;;;;;;13.17;11.20;;;14.70;99.90;;;;;;5060112;28;20454;-61
2023/05/06 07:30:11;;;;;;;13.23;10.93;;;14.70;99.90;;;;;;5063307;28;20830;-61
2023/05/06 07:32:39;;;;;;;10.90;9.77;;;14.70;99.90;;;;;;5062475;28;20441;-61
2023/05/06 07:35:07;;;;;;;12.33;10.33;;;14.80;99.90;;;;;;5062287;28;20413;-62
2023/05/06 07:37:35;;;;;;;11.87;10.17;;;14.90;99.90;;;;;;5061258;28;20446;-63
2023/05/06 07:40:02;;;;;;;11.63;9.57;;;15.00;99.90;;;;;;5059966;28;20447;-61
2023/05/06 07:42:28;;;;;;;13.00;10.67;;;15.20;99.90;;;;;;5056919;28;20443;-61
2023/05/06 07:44:55;;;;;;;10.43;9.43;;;15.40;99.90;;;;;;5056678;28;20444;-61
2023/05/06 07:47:30;;;;;;;10.90;9.90;;;15.60;99.90;;;;;;5057738;28;20440;-60
2023/05/06 07:49:57;;;;;;;10.40;8.50;;;15.70;99.90;;;;;;5057265;28;20453;-62
2023/05/06 07:52:24;;;;;;;9.50;8.50;;;15.80;99.90;;;;;;5057574;28;21031;-62
2023/05/06 07:54:52;;;;;;;10.83;8.40;;;15.70;99.90;;;;;;5058062;28;20812;-61
2023/05/06 07:57:19;;;;;;;9.33;8.07;;;15.40;99.90;;;;;;5057989;28;20443;-62
2023/05/06 07:59:48;;;;;;;11.53;7.27;;;15.20;99.90;;;;;;5059089;28;20443;-61
2023/05/06 08:02:15;;;;;;;9.10;8.10;;;15.10;99.90;;;;;;5059031;28;20440;-61
2023/05/06 08:04:41;;;;;;;10.97;9.97;;;15.10;99.90;;;;;;5063301;28;20464;-61
2023/05/06 08:07:09;;;;;;;10.10;9.20;;;15.50;99.90;;;;;;5061310;28;20444;-60
2023/05/06 08:09:36;;;;;;;8.70;7.90;;;15.80;99.90;;;;;;5060127;28;20443;-61
2023/05/06 08:12:05;;;;;;;9.10;8.20;;;16.00;99.90;;;;;;5057678;28;20479;-59
2023/05/06 08:14:32;;;;;;;9.40;8.53;;;16.20;99.90;;;;;;5056408;28;20468;-61
2023/05/06 08:16:58;;;;;;;10.33;7.63;;;16.30;99.90;;;;;;5056079;28;20455;-62
2023/05/06 08:19:25;;;;;;;8.53;7.57;;;16.50;99.90;;;;;;5055358;28;20462;-62
2023/05/06 08:21:52;;;;;;;8.80;8.00;;;16.60;99.90;;;;;;5055306;28;20439;-60
2023/05/06 08:24:19;;;;;;;10.20;8.50;;;16.70;99.90;;;;;;5055220;28;20509;-61
2023/05/06 08:26:46;;;;;;;8.93;8.03;;;16.90;99.90;;;;;;5055117;28;20451;-61
2023/05/06 08:29:14;;;;;;;9.60;8.70;;;17.20;99.90;;;;;;5055212;28;20444;-61
2023/05/06 08:31:40;;;;;;;9.57;8.50;;;17.30;98.60;;;;;;5055355;28;20850;-60
2023/05/06 08:34:07;;;;;;;10.77;9.63;;;17.20;97.90;;;;;;5054874;28;20476;-61
2023/05/06 08:36:34;;;;;;;10.90;9.90;;;17.00;98.20;;;;;;5054988;28;20534;-62
2023/05/06 08:39:01;;;;;;;12.63;11.43;;;16.90;98.90;;;;;;5055108;28;20447;-61
2023/05/06 08:41:30;;;;;;;11.33;10.27;;;16.80;99.00;;;;;;5054982;28;20452;-61
2023/05/06 08:43:58;;;;;;;11.23;10.10;;;16.80;99.40;;;;;;5054896;28;20547;-61
2023/05/06 08:46:29;;;;;;;12.37;10.80;;;16.80;99.80;;;;;;5054797;28;20448;-61
2023/05/06 08:48:56;;;;;;;12.23;10.63;;;16.80;99.50;;;;;;5054648;28;20840;-60
2023/05/06 08:51:28;;;;;;;11.73;10.43;;;16.80;99.70;;;;;;5054901;28;20491;-61
2023/05/06 08:53:58;;;;;;;10.20;9.27;;;16.70;99.90;;;;;;5055365;28;20471;-60
2023/05/06 08:56:28;;;;;;;9.30;8.27;;;16.80;99.90;;;;;;5054421;28;20755;-61
2023/05/06 08:58:57;;;;;;;7.70;6.77;;;16.80;99.90;;;;;;5059004;28;20427;-61
2023/05/06 09:01:27;;;;;;;9.43;8.00;;;17.00;99.70;;;;;;5058922;28;20451;-61
2023/05/06 09:03:55;;;;;;;7.93;7.20;;;17.20;98.70;;;;;;5058093;28;20456;-61
2023/05/06 09:06:22;;;;;;;8.40;7.43;;;17.40;96.50;;;;;;5058921;28;20444;-61
2023/05/06 09:08:49;;;;;;;8.47;7.67;;;17.40;95.70;;;;;;5058201;28;20813;-63
2023/05/06 09:11:23;;;;;;;9.70;7.60;;;17.30;95.70;;;;;;5057772;28;20858;-60
2023/05/06 09:13:50;;;;;;;8.87;7.83;;;17.40;95.90;;;;;;5058103;28;20468;-60
2023/05/06 09:16:28;;;;;;;8.63;7.73;;;17.50;95.20;;;;;;5057990;28;20941;-63
2023/05/06 09:18:56;;;;;;;9.50;8.60;;;17.70;94.90;;;;;;5058297;28;20442;-60
2023/05/06 09:21:31;;;;;;;10.43;9.47;;;17.80;94.10;;;;;;5057537;28;20443;-61
2023/05/06 09:23:59;;;;;;;11.17;9.50;;;17.80;94.00;;;;;;5057755;28;20468;-61
2023/05/06 09:26:27;;;;;;;11.77;9.97;;;17.70;93.90;;;;;;5058806;28;20444;-61
2023/05/06 09:28:54;;;;;;;11.30;9.80;;;17.60;94.40;;;;;;5058464;28;20444;-61
2023/05/06 09:31:21;;;;;;;9.50;7.60;;;17.60;94.60;;;;;;5057797;28;20977;-62
2023/05/06 09:33:50;;;;;;;8.97;7.80;;;17.50;94.40;;;;;;5057425;28;20855;-62
2023/05/06 09:36:17;;;;;;;8.43;7.63;;;17.30;93.70;;;;;;5057814;28;20456;-63
2023/05/06 09:38:43;;;;;;;8.37;7.47;;;17.20;94.40;;;;;;5057488;28;20796;-61
2023/05/06 09:41:12;;;;;;;9.60;7.70;;;17.30;93.80;;;;;;5057001;28;20448;-61
2023/05/06 09:43:40;;;;;;;10.20;7.80;;;17.40;93.20;;;;;;5057204;28;20478;-61
2023/05/06 09:46:07;;;;;;;12.30;7.90;;;17.40;93.10;;;;;;5056720;28;20448;-61
2023/05/06 09:48:35;;;;;;;10.00;9.00;;;17.30;92.80;;;;;;5056923;28;20447;-61
2023/05/06 09:51:04;;;;;;;13.90;11.70;;;17.20;93.30;;;;;;5056785;28;20866;-61
2023/05/06 09:53:31;;;;;;;12.03;10.93;;;17.10;93.90;;;;;;5056412;28;20985;-62
2023/05/06 09:56:00;;;;;;;11.90;10.57;;;17.20;94.50;;;;;;5056411;28;20459;-60
2023/05/06 09:58:27;;;;;;;12.17;10.70;;;17.30;94.80;;;;;;5056224;28;20951;-61
2023/05/06 10:00:55;;;;;;;12.73;11.20;;;17.30;94.40;;;;;;5055941;28;20447;-62
2023/05/06 10:03:23;;;;;;;13.57;11.03;;;17.30;94.40;;;;;;5057319;28;20464;-62
2023/05/06 10:05:50;;;;;;;12.07;10.30;;;17.20;94.40;;;;;;5057021;28;20448;-61
2023/05/06 10:08:20;;;;;;;12.90;10.80;;;17.20;94.70;;;;;;5056606;28;20467;-60
2023/05/06 10:10:50;;;;;;;11.77;10.57;;;17.40;94.40;;;;;;5057121;28;20448;-60
2023/05/06 10:13:17;;;;;;;12.77;11.17;;;17.60;93.50;;;;;;5057135;28;21076;-62
2023/05/06 10:15:46;;;;;;;12.07;10.80;;;17.80;93.00;;;;;;5056836;28;20957;-62
2023/05/06 10:18:15;;;;;;;13.10;11.67;;;17.90;92.00;;;;;;5057140;28;20458;-62
2023/05/06 10:20:43;;;;;;;12.90;11.57;;;18.10;91.50;;;;;;5057422;28;20445;-61
2023/05/06 10:23:21;;;;;;;13.40;10.70;;;18.10;90.60;;;;;;5056950;28;20464;-62
2023/05/06 10:25:53;;;;;;;12.67;11.37;;;18.10;90.60;;;;;;5057464;28;20435;-60
2023/05/06 10:28:21;;;;;;;14.60;13.10;;;18.20;90.30;;;;;;5057181;28;20432;-62
2023/05/06 10:30:49;;;;;;;13.33;12.03;;;18.40;90.20;;;;;;5056852;28;20448;-60
2023/05/06 10:33:16;;;;;;;13.77;12.47;;;18.60;89.30;;;;;;5056826;28;20494;-60
2023/05/06 10:35:49;;;;;;;15.57;11.87;;;18.60;87.40;;;;;;5086755;22;20497;-63
2023/05/06 10:38:21;;;;;;;15.30;13.10;;;18.50;86.20;;;;;;5074752;28;20770;-65
2023/05/06 10:40:49;;;;;;;13.03;11.73;;;18.40;86.70;;;;;;5075039;28;20432;-63
2023/05/06 10:43:29;;;;;;;14.30;12.43;;;18.20;86.50;;;;;;5075017;28;20431;-62
2023/05/06 10:46:00;;;;;;;13.17;11.83;;;18.20;87.20;;;;;;5074365;28;20469;-63
2023/05/06 10:48:27;;;;;;;12.40;11.10;;;18.30;86.80;;;;;;5073745;28;20451;-63
2023/05/06 10:51:21;;;;;;;12.23;10.93;;;18.60;85.40;;;;;;5073542;28;20440;-63
2023/05/06 10:54:08;;;;;;;11.67;10.43;;;18.80;83.70;;;;;;5073805;28;20428;-63
2023/05/06 10:56:36;;;;;;;13.93;10.67;;;18.70;81.60;;;;;;5074461;28;20455;-64
2023/05/06 10:59:06;;;;;;;10.83;9.70;;;18.40;81.60;;;;;;5073619;28;20443;-63
2023/05/06 11:01:33;;;;;;;9.80;8.70;;;18.30;83.70;;;;;;5074639;28;20436;-63
2023/05/06 11:04:05;;;;;;;10.17;8.00;;;18.30;83.30;;;;;;5073826;28;20567;-65
2023/05/06 11:06:34;;;;;;;8.17;7.30;;;18.30;82.90;;;;;;5073578;28;20932;-63
2023/05/06 11:09:03;;;;;;;10.17;8.40;;;18.50;81.80;;;;;;5073629;28;20443;-64
2023/05/06 11:11:58;;;;;;;13.07;7.77;;;18.70;79.50;;;;;;5073360;28;20895;-62
2023/05/06 11:14:29;;;;;;;10.00;7.53;;;18.80;77.70;;;;;;5073351;28;20466;-63
2023/05/06 11:16:58;;;;;;;10.93;9.00;;;18.90;76.70;;;;;;5073064;28;20813;-63
2023/05/06 11:19:26;;;;;;;9.73;7.70;;;19.10;75.70;;;;;;5072710;28;20448;-64
2023/05/06 11:21:56;;;;;;;11.63;9.53;;;19.10;75.00;;;;;;5073251;28;20469;-62
2023/05/06 11:24:24;;;;;;;9.50;8.60;;;19.10;74.80;;;;;;5073097;28;20473;-63
2023/05/06 11:26:53;;;;;;;9.97;8.63;;;19.10;74.90;;;;;;5073245;28;20458;-63
2023/05/06 11:29:20;;;;;;;10.73;8.27;;;19.20;74.90;;;;;;5073614;28;20447;-62
2023/05/06 11:31:48;;;;;;;11.13;9.93;;;19.50;74.10;;;;;;5073344;28;20509;-62
2023/05/06 11:34:24;;;;;;;16.47;9.47;;;19.90;72.80;;;;;;5073865;28;20480;-62
2023/05/06 11:36:58;;;;;;;13.83;8.60;;;20.10;70.90;;;;;;5073539;28;20471;-63
2023/05/06 11:39:29;;;;;;;12.03;9.13;;;20.00;69.70;;;;;;5073355;28;20432;-62
2023/05/06 11:41:58;;;;;;;10.83;8.23;;;19.80;69.90;;;;;;5073185;28;20519;-63
2023/05/06 11:44:30;;;;;;;9.23;7.93;;;19.60;69.70;;;;;;5073182;28;20463;-63
2023/05/06 11:46:58;;;;;;;10.03;8.60;;;19.40;69.80;;;;;;5073213;28;20432;-62
2023/05/06 11:49:25;;;;;;;14.27;9.47;;;19.40;70.20;;;;;;5073144;28;20448;-62
2023/05/06 11:51:52;;;;;;;10.97;9.07;;;19.40;70.30;;;;;;5073063;28;20444;-62
2023/05/06 11:54:21;;;;;;;10.43;9.10;;;19.40;70.00;;;;;;5073181;28;20486;-63
2023/05/06 11:56:50;;;;;;;10.30;8.70;;;19.90;70.20;;;;;;5073431;28;20454;-63
2023/05/06 11:59:28;;;;;;;11.20;9.67;;;20.50;66.90;;;;;;5073127;28;20456;-64
2023/05/06 12:01:58;;;;;;;9.97;8.83;;;20.80;65.20;;;;;;5072766;28;20448;-62
2023/05/06 12:04:25;;;;;;;10.50;8.93;;;21.20;64.00;;;;;;5073062;28;20496;-62
2023/05/06 12:06:52;;;;;;;10.83;8.73;;;21.70;61.60;;;;;;5073289;28;20451;-61
2023/05/06 12:09:21;;;;;;;11.20;8.40;;;21.60;61.10;;;;;;5072736;28;20444;-64
2023/05/06 12:11:48;;;;;;;9.23;8.20;;;21.30;60.40;;;;;;5073267;28;20480;-66
2023/05/06 12:14:15;;;;;;;11.13;8.80;;;20.80;61.40;;;;;;5073108;28;21024;-64
2023/05/06 12:16:43;;;;;;;8.93;7.17;;;20.60;62.50;;;;;;5072706;28;20456;-63
2023/05/06 12:19:10;;;;;;;9.13;8.13;;;20.40;63.20;;;;;;5073255;28;20490;-63
2023/05/06 12:21:39;;;;;;;9.53;7.07;;;20.40;63.60;;;;;;5072997;28;20445;-63
2023/05/06 12:24:06;;;;;;;10.57;9.07;;;20.30;62.40;;;;;;5073191;28;20553;-63
2023/05/06 12:26:47;;;;;;;12.00;8.97;;;20.20;62.20;;;;;;5073104;28;20941;-62
2023/05/06 12:29:16;;;;;;;11.93;9.30;;;20.20;62.90;;;;;;5072717;28;20448;-63
2023/05/06 12:31:45;;;;;;;9.63;7.87;;;20.10;63.50;;;;;;5073299;28;20945;-63
2023/05/06 12:34:13;;;;;;;13.43;7.60;;;20.00;64.10;;;;;;5076521;28;20515;-63
2023/05/06 12:36:41;;;;;;;9.77;8.80;;;20.00;64.50;;;;;;5076654;28;20474;-64
2023/05/06 12:39:08;;;;;;;9.93;8.37;;;19.80;64.80;;;;;;5076503;28;20443;-62
2023/05/06 12:41:37;;;;;;;10.90;8.47;;;19.60;65.70;;;;;;5076647;28;20447;-63